sensor_id;sensor_type;location;lat;lon;timestamp;P1;durP1;ratioP1;P2;durP2;ratioP2
3975;SDS011;2002;48.812;9.180;2023-04-01T00:01:03;2.70;;;1.80;;
3975;SDS011;2002;48.812;9.180;2023-04-01T00:03:30;1.57;;;1.40;;
3975;SDS011;2002;48.812;9.180;2023-04-01T00:05:58;1.97;;;1.50;;
3975;SDS011;2002;48.812;9.180;2023-04-01T00:08:24;1.93;;;1.80;;
3975;SDS011;2002;48.812;9.180;2023-04-01T00:10:51;1.20;;;1.10;;
3975;SDS011;2002;48.812;9.180;2023-04-01T00:13:16;1.80;;;1.50;;
3975;SDS011;2002;48.812;9.180;2023-04-01T00:15:42;1.80;;;1.30;;
3975;SDS011;2002;48.812;9.180;2023-04-01T00:18:08;1.60;;;1.47;;
3975;SDS011;2002;48.812;9.180;2023-04-01T00:20:34;2.60;;;1.60;;
3975;SDS011;2002;48.812;9.180;2023-04-01T00:23:00;3.87;;;2.03;;
3975;SDS011;2002;48.812;9.180;2023-04-01T00:25:26;2.27;;;1.70;;
3975;SDS011;2002;48.812;9.180;2023-04-01T00:27:51;1.30;;;1.10;;
3975;SDS011;2002;48.812;9.180;2023-04-01T00:30:17;1.43;;;1.27;;
3975;SDS011;2002;48.812;9.180;2023-04-01T00:32:43;1.63;;;1.53;;
3975;SDS011;2002;48.812;9.180;2023-04-01T00:35:09;1.60;;;1.27;;
3975;SDS011;2002;48.812;9.180;2023-04-01T00:37:35;1.80;;;1.60;;
3975;SDS011;2002;48.812;9.180;2023-04-01T00:40:02;1.90;;;1.67;;
3975;SDS011;2002;48.812;9.180;2023-04-01T00:42:32;1.37;;;1.27;;
3975;SDS011;2002;48.812;9.180;2023-04-01T00:44:58;2.53;;;1.63;;
3975;SDS011;2002;48.812;9.180;2023-04-01T00:47:24;2.77;;;1.33;;
3975;SDS011;2002;48.812;9.180;2023-04-01T00:49:51;2.40;;;1.60;;
3975;SDS011;2002;48.812;9.180;2023-04-01T00:52:21;1.93;;;1.70;;
3975;SDS011;2002;48.812;9.180;2023-04-01T00:54:50;1.60;;;1.30;;
3975;SDS011;2002;48.812;9.180;2023-04-01T00:57:25;2.00;;;1.90;;
3975;SDS011;2002;48.812;9.180;2023-04-01T00:59:56;1.83;;;1.47;;
3975;SDS011;2002;48.812;9.180;2023-04-01T01:02:22;1.93;;;1.47;;
3975;SDS011;2002;48.812;9.180;2023-04-01T01:04:48;2.03;;;1.43;;
3975;SDS011;2002;48.812;9.180;2023-04-01T01:07:17;1.40;;;1.30;;
3975;SDS011;2002;48.812;9.180;2023-04-01T01:10:08;1.83;;;1.60;;
3975;SDS011;2002;48.812;9.180;2023-04-01T01:12:55;1.37;;;1.20;;
3975;SDS011;2002;48.812;9.180;2023-04-01T01:15:42;2.27;;;1.70;;
3975;SDS011;2002;48.812;9.180;2023-04-01T01:37:59;1.70;;;1.40;;
3975;SDS011;2002;48.812;9.180;2023-04-01T01:40:28;1.63;;;1.40;;
3975;SDS011;2002;48.812;9.180;2023-04-01T01:42:57;1.53;;;1.17;;
3975;SDS011;2002;48.812;9.180;2023-04-01T01:45:26;2.10;;;1.30;;
3975;SDS011;2002;48.812;9.180;2023-04-01T01:47:55;2.70;;;1.50;;
3975;SDS011;2002;48.812;9.180;2023-04-01T01:50:22;2.20;;;1.50;;
3975;SDS011;2002;48.812;9.180;2023-04-01T01:52:51;1.40;;;1.10;;
3975;SDS011;2002;48.812;9.180;2023-04-01T01:55:32;1.67;;;1.30;;
3975;SDS011;2002;48.812;9.180;2023-04-01T01:58:00;1.73;;;1.30;;
3975;SDS011;2002;48.812;9.180;2023-04-01T02:00:32;1.63;;;1.13;;
3975;SDS011;2002;48.812;9.180;2023-04-01T02:02:59;1.33;;;1.23;;
3975;SDS011;2002;48.812;9.180;2023-04-01T02:05:26;1.60;;;1.50;;
3975;SDS011;2002;48.812;9.180;2023-04-01T02:08:16;1.60;;;1.40;;
3975;SDS011;2002;48.812;9.180;2023-04-01T02:10:57;1.60;;;1.50;;
3975;SDS011;2002;48.812;9.180;2023-04-01T02:13:28;3.63;;;1.53;;
3975;SDS011;2002;48.812;9.180;2023-04-01T02:16:05;1.50;;;1.30;;
3975;SDS011;2002;48.812;9.180;2023-04-01T02:18:37;1.27;;;1.17;;
3975;SDS011;2002;48.812;9.180;2023-04-01T02:21:04;2.00;;;1.90;;
3975;SDS011;2002;48.812;9.180;2023-04-01T02:23:33;1.50;;;1.20;;
3975;SDS011;2002;48.812;9.180;2023-04-01T02:26:00;1.30;;;1.20;;
3975;SDS011;2002;48.812;9.180;2023-04-01T02:28:29;1.30;;;1.20;;
3975;SDS011;2002;48.812;9.180;2023-04-01T02:30:56;1.97;;;1.27;;
3975;SDS011;2002;48.812;9.180;2023-04-01T02:33:25;1.40;;;1.20;;
3975;SDS011;2002;48.812;9.180;2023-04-01T02:35:52;1.43;;;1.20;;
3975;SDS011;2002;48.812;9.180;2023-04-01T02:38:17;1.70;;;1.53;;
3975;SDS011;2002;48.812;9.180;2023-04-01T02:40:44;2.00;;;1.50;;
3975;SDS011;2002;48.812;9.180;2023-04-01T02:43:14;1.47;;;1.03;;
3975;SDS011;2002;48.812;9.180;2023-04-01T02:45:41;1.90;;;1.20;;
3975;SDS011;2002;48.812;9.180;2023-04-01T02:48:07;2.83;;;1.60;;
3975;SDS011;2002;48.812;9.180;2023-04-01T02:50:33;1.80;;;1.33;;
3975;SDS011;2002;48.812;9.180;2023-04-01T02:52:59;1.63;;;1.40;;
3975;SDS011;2002;48.812;9.180;2023-04-01T02:55:25;1.23;;;0.97;;
3975;SDS011;2002;48.812;9.180;2023-04-01T02:57:50;1.43;;;1.07;;
3975;SDS011;2002;48.812;9.180;2023-04-01T03:00:16;1.20;;;1.10;;
3975;SDS011;2002;48.812;9.180;2023-04-01T03:02:42;2.80;;;1.53;;
3975;SDS011;2002;48.812;9.180;2023-04-01T03:05:09;2.07;;;1.30;;
3975;SDS011;2002;48.812;9.180;2023-04-01T03:07:35;1.20;;;1.10;;
3975;SDS011;2002;48.812;9.180;2023-04-01T03:10:00;1.77;;;1.67;;
3975;SDS011;2002;48.812;9.180;2023-04-01T03:12:26;2.07;;;1.43;;
3975;SDS011;2002;48.812;9.180;2023-04-01T03:14:52;1.50;;;1.40;;
3975;SDS011;2002;48.812;9.180;2023-04-01T03:17:17;1.67;;;1.50;;
3975;SDS011;2002;48.812;9.180;2023-04-01T03:19:43;2.50;;;1.50;;
3975;SDS011;2002;48.812;9.180;2023-04-01T03:22:10;1.87;;;1.53;;
3975;SDS011;2002;48.812;9.180;2023-04-01T03:24:36;1.07;;;0.93;;
3975;SDS011;2002;48.812;9.180;2023-04-01T03:27:01;1.57;;;1.23;;
3975;SDS011;2002;48.812;9.180;2023-04-01T03:29:27;1.47;;;1.20;;
3975;SDS011;2002;48.812;9.180;2023-04-01T03:31:53;1.20;;;1.07;;
3975;SDS011;2002;48.812;9.180;2023-04-01T03:34:18;1.40;;;1.20;;
3975;SDS011;2002;48.812;9.180;2023-04-01T03:36:44;1.87;;;1.17;;
3975;SDS011;2002;48.812;9.180;2023-04-01T03:39:10;1.30;;;1.20;;
3975;SDS011;2002;48.812;9.180;2023-04-01T03:41:36;2.00;;;1.57;;
3975;SDS011;2002;48.812;9.180;2023-04-01T03:44:03;1.33;;;1.17;;
3975;SDS011;2002;48.812;9.180;2023-04-01T03:46:28;1.57;;;1.40;;
3975;SDS011;2002;48.812;9.180;2023-04-01T03:48:54;2.30;;;2.10;;
3975;SDS011;2002;48.812;9.180;2023-04-01T03:51:19;1.60;;;1.13;;
3975;SDS011;2002;48.812;9.180;2023-04-01T03:53:45;1.30;;;1.20;;
3975;SDS011;2002;48.812;9.180;2023-04-01T03:56:11;1.90;;;1.50;;
3975;SDS011;2002;48.812;9.180;2023-04-01T03:58:37;1.20;;;1.10;;
3975;SDS011;2002;48.812;9.180;2023-04-01T04:01:12;1.20;;;0.90;;
3975;SDS011;2002;48.812;9.180;2023-04-01T04:03:42;1.43;;;1.33;;
3975;SDS011;2002;48.812;9.180;2023-04-01T04:06:15;1.20;;;1.00;;
3975;SDS011;2002;48.812;9.180;2023-04-01T04:08:43;1.60;;;1.10;;
3975;SDS011;2002;48.812;9.180;2023-04-01T04:11:09;1.10;;;0.90;;
3975;SDS011;2002;48.812;9.180;2023-04-01T04:13:35;1.60;;;1.27;;
3975;SDS011;2002;48.812;9.180;2023-04-01T04:16:01;1.43;;;1.17;;
3975;SDS011;2002;48.812;9.180;2023-04-01T04:18:28;1.33;;;1.20;;
3975;SDS011;2002;48.812;9.180;2023-04-01T04:20:54;0.97;;;0.80;;
3975;SDS011;2002;48.812;9.180;2023-04-01T04:23:20;2.10;;;1.07;;
3975;SDS011;2002;48.812;9.180;2023-04-01T04:28:25;1.60;;;1.20;;
3975;SDS011;2002;48.812;9.180;2023-04-01T04:30:52;1.47;;;1.37;;
3975;SDS011;2002;48.812;9.180;2023-04-01T04:33:17;2.63;;;1.23;;
3975;SDS011;2002;48.812;9.180;2023-04-01T04:35:43;1.57;;;1.27;;
3975;SDS011;2002;48.812;9.180;2023-04-01T04:38:09;1.27;;;1.00;;
3975;SDS011;2002;48.812;9.180;2023-04-01T04:40:37;2.20;;;1.50;;
3975;SDS011;2002;48.812;9.180;2023-04-01T04:43:04;1.20;;;1.07;;
3975;SDS011;2002;48.812;9.180;2023-04-01T04:45:29;1.30;;;1.00;;
3975;SDS011;2002;48.812;9.180;2023-04-01T04:47:55;1.20;;;0.90;;
3975;SDS011;2002;48.812;9.180;2023-04-01T04:50:21;1.40;;;1.13;;
3975;SDS011;2002;48.812;9.180;2023-04-01T04:52:48;0.97;;;0.90;;
3975;SDS011;2002;48.812;9.180;2023-04-01T04:55:13;1.30;;;1.00;;
3975;SDS011;2002;48.812;9.180;2023-04-01T04:57:40;1.57;;;1.20;;
3975;SDS011;2002;48.812;9.180;2023-04-01T05:00:06;1.50;;;1.20;;
3975;SDS011;2002;48.812;9.180;2023-04-01T05:02:32;1.70;;;1.60;;
3975;SDS011;2002;48.812;9.180;2023-04-01T05:04:58;1.27;;;1.17;;
3975;SDS011;2002;48.812;9.180;2023-04-01T05:07:23;1.20;;;1.10;;
3975;SDS011;2002;48.812;9.180;2023-04-01T05:09:49;2.37;;;1.00;;
3975;SDS011;2002;48.812;9.180;2023-04-01T05:12:15;1.83;;;1.10;;
3975;SDS011;2002;48.812;9.180;2023-04-01T05:14:40;1.20;;;1.00;;
3975;SDS011;2002;48.812;9.180;2023-04-01T05:17:10;1.50;;;1.40;;
3975;SDS011;2002;48.812;9.180;2023-04-01T05:19:36;1.50;;;1.20;;
3975;SDS011;2002;48.812;9.180;2023-04-01T05:22:02;1.10;;;1.00;;
3975;SDS011;2002;48.812;9.180;2023-04-01T05:24:28;1.27;;;1.00;;
3975;SDS011;2002;48.812;9.180;2023-04-01T05:26:53;2.10;;;1.10;;
3975;SDS011;2002;48.812;9.180;2023-04-01T05:29:19;1.00;;;0.90;;
3975;SDS011;2002;48.812;9.180;2023-04-01T05:31:44;1.00;;;0.90;;
3975;SDS011;2002;48.812;9.180;2023-04-01T05:34:10;1.57;;;1.47;;
3975;SDS011;2002;48.812;9.180;2023-04-01T05:36:35;1.30;;;1.10;;
3975;SDS011;2002;48.812;9.180;2023-04-01T05:39:01;1.10;;;0.93;;
3975;SDS011;2002;48.812;9.180;2023-04-01T05:41:28;1.30;;;1.00;;
3975;SDS011;2002;48.812;9.180;2023-04-01T05:43:53;1.27;;;0.97;;
3975;SDS011;2002;48.812;9.180;2023-04-01T05:46:19;1.10;;;0.93;;
3975;SDS011;2002;48.812;9.180;2023-04-01T05:48:45;1.90;;;1.40;;
3975;SDS011;2002;48.812;9.180;2023-04-01T05:51:14;1.37;;;0.90;;
3975;SDS011;2002;48.812;9.180;2023-04-01T05:53:40;1.30;;;1.20;;
3975;SDS011;2002;48.812;9.180;2023-04-01T05:56:07;1.20;;;1.03;;
3975;SDS011;2002;48.812;9.180;2023-04-01T05:58:34;1.47;;;1.20;;
3975;SDS011;2002;48.812;9.180;2023-04-01T06:01:01;2.70;;;0.83;;
3975;SDS011;2002;48.812;9.180;2023-04-01T06:03:28;1.27;;;0.90;;
3975;SDS011;2002;48.812;9.180;2023-04-01T06:05:54;1.00;;;0.90;;
3975;SDS011;2002;48.812;9.180;2023-04-01T06:08:20;1.40;;;1.00;;
3975;SDS011;2002;48.812;9.180;2023-04-01T06:10:53;1.10;;;0.97;;
3975;SDS011;2002;48.812;9.180;2023-04-01T06:30:38;0.70;;;0.70;;
3975;SDS011;2002;48.812;9.180;2023-04-01T06:36:06;1.03;;;0.80;;
3975;SDS011;2002;48.812;9.180;2023-04-01T06:38:58;1.40;;;1.20;;
3975;SDS011;2002;48.812;9.180;2023-04-01T06:58:06;0.90;;;0.77;;
3975;SDS011;2002;48.812;9.180;2023-04-01T07:00:39;1.50;;;0.90;;
3975;SDS011;2002;48.812;9.180;2023-04-01T07:05:48;1.00;;;0.90;;
3975;SDS011;2002;48.812;9.180;2023-04-01T07:08:23;1.00;;;0.90;;
3975;SDS011;2002;48.812;9.180;2023-04-01T07:13:27;1.27;;;0.87;;
3975;SDS011;2002;48.812;9.180;2023-04-01T07:16:17;1.10;;;0.90;;
3975;SDS011;2002;48.812;9.180;2023-04-01T07:19:08;0.80;;;0.70;;
3975;SDS011;2002;48.812;9.180;2023-04-01T07:24:31;1.20;;;1.10;;
3975;SDS011;2002;48.812;9.180;2023-04-01T07:26:59;1.03;;;0.70;;
3975;SDS011;2002;48.812;9.180;2023-04-01T07:29:25;1.30;;;1.00;;
3975;SDS011;2002;48.812;9.180;2023-04-01T07:31:56;1.47;;;1.10;;
3975;SDS011;2002;48.812;9.180;2023-04-01T07:34:55;0.80;;;0.80;;
3975;SDS011;2002;48.812;9.180;2023-04-01T07:45:47;1.47;;;0.90;;
3975;SDS011;2002;48.812;9.180;2023-04-01T07:56:47;1.10;;;1.00;;
3975;SDS011;2002;48.812;9.180;2023-04-01T08:02:14;1.20;;;1.00;;
3975;SDS011;2002;48.812;9.180;2023-04-01T08:08:18;0.70;;;0.67;;
3975;SDS011;2002;48.812;9.180;2023-04-01T08:10:54;1.00;;;0.90;;
3975;SDS011;2002;48.812;9.180;2023-04-01T08:16:55;0.80;;;0.73;;
3975;SDS011;2002;48.812;9.180;2023-04-01T08:22:03;0.80;;;0.53;;
3975;SDS011;2002;48.812;9.180;2023-04-01T08:24:41;1.07;;;0.97;;
3975;SDS011;2002;48.812;9.180;2023-04-01T08:27:41;1.10;;;0.97;;
3975;SDS011;2002;48.812;9.180;2023-04-01T08:30:04;1.13;;;0.97;;
3975;SDS011;2002;48.812;9.180;2023-04-01T08:32:33;1.30;;;1.20;;
3975;SDS011;2002;48.812;9.180;2023-04-01T08:37:45;0.97;;;0.80;;
3975;SDS011;2002;48.812;9.180;2023-04-01T08:50:36;1.30;;;1.00;;
3975;SDS011;2002;48.812;9.180;2023-04-01T08:53:13;1.03;;;0.93;;
3975;SDS011;2002;48.812;9.180;2023-04-01T08:56:02;0.77;;;0.77;;
3975;SDS011;2002;48.812;9.180;2023-04-01T09:01:50;0.73;;;0.50;;
3975;SDS011;2002;48.812;9.180;2023-04-01T09:13:13;1.20;;;0.97;;
3975;SDS011;2002;48.812;9.180;2023-04-01T09:18:37;1.20;;;0.80;;
3975;SDS011;2002;48.812;9.180;2023-04-01T09:21:25;0.80;;;0.70;;
3975;SDS011;2002;48.812;9.180;2023-04-01T09:27:01;0.90;;;0.70;;
3975;SDS011;2002;48.812;9.180;2023-04-01T09:40:33;0.80;;;0.70;;
3975;SDS011;2002;48.812;9.180;2023-04-01T09:53:20;1.00;;;0.80;;
3975;SDS011;2002;48.812;9.180;2023-04-01T09:55:39;1.47;;;1.03;;
3975;SDS011;2002;48.812;9.180;2023-04-01T09:59:08;0.90;;;0.77;;
3975;SDS011;2002;48.812;9.180;2023-04-01T10:01:20;1.00;;;0.70;;
3975;SDS011;2002;48.812;9.180;2023-04-01T10:04:08;1.30;;;0.73;;
3975;SDS011;2002;48.812;9.180;2023-04-01T10:27:10;0.70;;;0.70;;
3975;SDS011;2002;48.812;9.180;2023-04-01T10:30:23;0.60;;;0.57;;
3975;SDS011;2002;48.812;9.180;2023-04-01T10:41:29;0.80;;;0.63;;
3975;SDS011;2002;48.812;9.180;2023-04-01T10:50:10;1.00;;;0.50;;
3975;SDS011;2002;48.812;9.180;2023-04-01T10:53:14;0.90;;;0.63;;
3975;SDS011;2002;48.812;9.180;2023-04-01T10:56:05;1.30;;;0.73;;
3975;SDS011;2002;48.812;9.180;2023-04-01T11:08:08;1.10;;;0.80;;
3975;SDS011;2002;48.812;9.180;2023-04-01T11:13:20;0.97;;;0.83;;
3975;SDS011;2002;48.812;9.180;2023-04-01T11:19:02;0.90;;;0.70;;
3975;SDS011;2002;48.812;9.180;2023-04-01T11:30:07;0.70;;;0.60;;
3975;SDS011;2002;48.812;9.180;2023-04-01T11:32:52;1.10;;;0.80;;
3975;SDS011;2002;48.812;9.180;2023-04-01T11:41:14;0.73;;;0.50;;
3975;SDS011;2002;48.812;9.180;2023-04-01T11:44:18;0.50;;;0.40;;
3975;SDS011;2002;48.812;9.180;2023-04-01T11:58:18;1.40;;;0.80;;
3975;SDS011;2002;48.812;9.180;2023-04-01T12:04:06;0.70;;;0.63;;
3975;SDS011;2002;48.812;9.180;2023-04-01T12:13:02;1.03;;;0.87;;
3975;SDS011;2002;48.812;9.180;2023-04-01T12:18:33;0.70;;;0.50;;
3975;SDS011;2002;48.812;9.180;2023-04-01T12:21:21;0.80;;;0.67;;
3975;SDS011;2002;48.812;9.180;2023-04-01T12:24:03;1.40;;;0.77;;
3975;SDS011;2002;48.812;9.180;2023-04-01T12:32:41;0.70;;;0.70;;
3975;SDS011;2002;48.812;9.180;2023-04-01T12:41:07;0.90;;;0.50;;
3975;SDS011;2002;48.812;9.180;2023-04-01T12:46:19;1.33;;;1.20;;
3975;SDS011;2002;48.812;9.180;2023-04-01T12:49:12;0.87;;;0.70;;
3975;SDS011;2002;48.812;9.180;2023-04-01T12:55:09;0.73;;;0.60;;
3975;SDS011;2002;48.812;9.180;2023-04-01T12:58:06;0.93;;;0.77;;
3975;SDS011;2002;48.812;9.180;2023-04-01T13:01:03;0.90;;;0.50;;
3975;SDS011;2002;48.812;9.180;2023-04-01T13:12:50;1.43;;;0.90;;
3975;SDS011;2002;48.812;9.180;2023-04-01T13:15:37;0.70;;;0.50;;
3975;SDS011;2002;48.812;9.180;2023-04-01T13:24:31;1.30;;;0.60;;
3975;SDS011;2002;48.812;9.180;2023-04-01T13:36:16;1.10;;;0.80;;
3975;SDS011;2002;48.812;9.180;2023-04-01T13:46:45;1.40;;;0.60;;
3975;SDS011;2002;48.812;9.180;2023-04-01T13:55:03;0.50;;;0.40;;
3975;SDS011;2002;48.812;9.180;2023-04-01T14:17:02;0.70;;;0.60;;
3975;SDS011;2002;48.812;9.180;2023-04-01T14:19:53;0.73;;;0.50;;
3975;SDS011;2002;48.812;9.180;2023-04-01T14:22:59;0.70;;;0.60;;
3975;SDS011;2002;48.812;9.180;2023-04-01T14:33:41;0.70;;;0.60;;
3975;SDS011;2002;48.812;9.180;2023-04-01T14:47:47;0.90;;;0.60;;
3975;SDS011;2002;48.812;9.180;2023-04-01T14:50:24;0.60;;;0.50;;
3975;SDS011;2002;48.812;9.180;2023-04-01T14:52:59;1.13;;;0.70;;
3975;SDS011;2002;48.812;9.180;2023-04-01T15:00:41;0.90;;;0.60;;
3975;SDS011;2002;48.812;9.180;2023-04-01T15:03:14;1.10;;;0.40;;
3975;SDS011;2002;48.812;9.180;2023-04-01T15:14:21;3.43;;;0.80;;
3975;SDS011;2002;48.812;9.180;2023-04-01T15:31:01;1.47;;;1.13;;
3975;SDS011;2002;48.812;9.180;2023-04-01T15:33:46;2.80;;;1.37;;
3975;SDS011;2002;48.812;9.180;2023-04-01T15:36:29;3.53;;;1.53;;
3975;SDS011;2002;48.812;9.180;2023-04-01T15:44:58;2.37;;;1.30;;
3975;SDS011;2002;48.812;9.180;2023-04-01T15:47:31;2.70;;;0.90;;
3975;SDS011;2002;48.812;9.180;2023-04-01T15:50:24;1.80;;;1.20;;
3975;SDS011;2002;48.812;9.180;2023-04-01T15:55:37;1.50;;;1.20;;
3975;SDS011;2002;48.812;9.180;2023-04-01T16:09:19;2.90;;;1.20;;
3975;SDS011;2002;48.812;9.180;2023-04-01T16:17:25;2.87;;;1.43;;
3975;SDS011;2002;48.812;9.180;2023-04-01T16:20:14;4.47;;;1.43;;
3975;SDS011;2002;48.812;9.180;2023-04-01T16:25:31;3.80;;;1.30;;
3975;SDS011;2002;48.812;9.180;2023-04-01T16:30:50;7.10;;;1.90;;
3975;SDS011;2002;48.812;9.180;2023-04-01T16:36:34;9.83;;;2.40;;
3975;SDS011;2002;48.812;9.180;2023-04-01T16:44:47;8.80;;;3.17;;
3975;SDS011;2002;48.812;9.180;2023-04-01T16:47:21;9.43;;;1.93;;
3975;SDS011;2002;48.812;9.180;2023-04-01T16:52:53;4.20;;;2.20;;
3975;SDS011;2002;48.812;9.180;2023-04-01T16:55:43;6.83;;;1.40;;
3975;SDS011;2002;48.812;9.180;2023-04-01T16:58:24;8.47;;;1.73;;
3975;SDS011;2002;48.812;9.180;2023-04-01T17:00:59;6.57;;;2.00;;
3975;SDS011;2002;48.812;9.180;2023-04-01T17:03:57;8.53;;;1.80;;
3975;SDS011;2002;48.812;9.180;2023-04-01T17:06:25;10.40;;;2.00;;
3975;SDS011;2002;48.812;9.180;2023-04-01T17:17:22;6.73;;;1.67;;
3975;SDS011;2002;48.812;9.180;2023-04-01T17:19:56;7.30;;;1.60;;
3975;SDS011;2002;48.812;9.180;2023-04-01T17:25:17;2.80;;;1.50;;
3975;SDS011;2002;48.812;9.180;2023-04-01T17:38:39;6.13;;;1.57;;
3975;SDS011;2002;48.812;9.180;2023-04-01T17:41:19;3.73;;;1.30;;
3975;SDS011;2002;48.812;9.180;2023-04-01T17:44:01;7.83;;;1.00;;
3975;SDS011;2002;48.812;9.180;2023-04-01T17:49:42;3.93;;;1.43;;
3975;SDS011;2002;48.812;9.180;2023-04-01T17:52:33;1.93;;;1.40;;
3975;SDS011;2002;48.812;9.180;2023-04-01T18:03:37;3.23;;;1.20;;
3975;SDS011;2002;48.812;9.180;2023-04-01T18:06:19;4.50;;;1.10;;
3975;SDS011;2002;48.812;9.180;2023-04-01T18:08:58;5.53;;;1.00;;
3975;SDS011;2002;48.812;9.180;2023-04-01T18:11:49;2.50;;;1.23;;
3975;SDS011;2002;48.812;9.180;2023-04-01T18:14:36;3.30;;;1.20;;
3975;SDS011;2002;48.812;9.180;2023-04-01T18:17:43;2.10;;;1.10;;
3975;SDS011;2002;48.812;9.180;2023-04-01T18:25:50;1.67;;;1.47;;
3975;SDS011;2002;48.812;9.180;2023-04-01T18:39:33;1.60;;;1.10;;
3975;SDS011;2002;48.812;9.180;2023-04-01T18:44:48;2.20;;;1.10;;
3975;SDS011;2002;48.812;9.180;2023-04-01T18:47:33;4.97;;;1.03;;
3975;SDS011;2002;48.812;9.180;2023-04-01T18:55:47;6.07;;;1.67;;
3975;SDS011;2002;48.812;9.180;2023-04-01T19:01:02;4.03;;;1.73;;
3975;SDS011;2002;48.812;9.180;2023-04-01T19:06:34;3.77;;;1.27;;
3975;SDS011;2002;48.812;9.180;2023-04-01T19:12:11;2.27;;;1.40;;
3975;SDS011;2002;48.812;9.180;2023-04-01T19:14:56;1.83;;;0.80;;
3975;SDS011;2002;48.812;9.180;2023-04-01T19:17:47;2.23;;;1.10;;
3975;SDS011;2002;48.812;9.180;2023-04-01T19:23:31;2.60;;;1.50;;
3975;SDS011;2002;48.812;9.180;2023-04-01T19:26:11;2.07;;;0.77;;
3975;SDS011;2002;48.812;9.180;2023-04-01T19:28:55;3.03;;;0.83;;
3975;SDS011;2002;48.812;9.180;2023-04-01T19:36:50;1.97;;;0.93;;
3975;SDS011;2002;48.812;9.180;2023-04-01T19:50:49;0.90;;;0.73;;
3975;SDS011;2002;48.812;9.180;2023-04-01T19:56:18;2.30;;;1.00;;
3975;SDS011;2002;48.812;9.180;2023-04-01T20:01:27;3.80;;;1.53;;
3975;SDS011;2002;48.812;9.180;2023-04-01T20:04:03;3.80;;;1.53;;
3975;SDS011;2002;48.812;9.180;2023-04-01T20:12:35;2.30;;;1.37;;
3975;SDS011;2002;48.812;9.180;2023-04-01T20:15:20;2.20;;;0.80;;
3975;SDS011;2002;48.812;9.180;2023-04-01T20:18:13;1.00;;;0.80;;
3975;SDS011;2002;48.812;9.180;2023-04-01T20:20:59;2.00;;;1.23;;
3975;SDS011;2002;48.812;9.180;2023-04-01T20:23:38;2.47;;;1.00;;
3975;SDS011;2002;48.812;9.180;2023-04-01T20:26:08;2.27;;;1.30;;
3975;SDS011;2002;48.812;9.180;2023-04-01T20:28:42;1.50;;;0.73;;
3975;SDS011;2002;48.812;9.180;2023-04-01T20:31:22;2.23;;;0.73;;
3975;SDS011;2002;48.812;9.180;2023-04-01T20:33:53;1.10;;;0.90;;
3975;SDS011;2002;48.812;9.180;2023-04-01T20:36:30;2.33;;;1.00;;
3975;SDS011;2002;48.812;9.180;2023-04-01T20:47:12;1.77;;;0.90;;
3975;SDS011;2002;48.812;9.180;2023-04-01T20:52:36;0.80;;;0.60;;
3975;SDS011;2002;48.812;9.180;2023-04-01T21:00:40;2.50;;;0.87;;
3975;SDS011;2002;48.812;9.180;2023-04-01T21:06:07;1.93;;;1.00;;
3975;SDS011;2002;48.812;9.180;2023-04-01T21:11:56;2.33;;;0.73;;
3975;SDS011;2002;48.812;9.180;2023-04-01T21:17:34;2.47;;;1.40;;
3975;SDS011;2002;48.812;9.180;2023-04-01T21:23:02;0.90;;;0.60;;
3975;SDS011;2002;48.812;9.180;2023-04-01T21:31:21;4.13;;;1.23;;
3975;SDS011;2002;48.812;9.180;2023-04-01T21:40:00;2.10;;;0.90;;
3975;SDS011;2002;48.812;9.180;2023-04-01T21:48:22;1.87;;;1.00;;
3975;SDS011;2002;48.812;9.180;2023-04-01T22:00:00;1.13;;;0.60;;
3975;SDS011;2002;48.812;9.180;2023-04-01T22:05:25;2.20;;;0.80;;
3975;SDS011;2002;48.812;9.180;2023-04-01T22:10:42;1.27;;;0.63;;
3975;SDS011;2002;48.812;9.180;2023-04-01T22:13:20;0.80;;;0.60;;
3975;SDS011;2002;48.812;9.180;2023-04-01T22:15:59;2.03;;;1.07;;
3975;SDS011;2002;48.812;9.180;2023-04-01T22:18:34;0.90;;;0.70;;
3975;SDS011;2002;48.812;9.180;2023-04-01T22:26:47;1.63;;;0.80;;
3975;SDS011;2002;48.812;9.180;2023-04-01T22:29:35;1.50;;;0.60;;
3975;SDS011;2002;48.812;9.180;2023-04-01T22:32:31;1.20;;;0.70;;
3975;SDS011;2002;48.812;9.180;2023-04-01T22:37:53;1.60;;;0.60;;
3975;SDS011;2002;48.812;9.180;2023-04-01T22:40:38;2.00;;;1.03;;
3975;SDS011;2002;48.812;9.180;2023-04-01T22:43:22;0.90;;;0.53;;
3975;SDS011;2002;48.812;9.180;2023-04-01T22:45:55;3.40;;;0.90;;
3975;SDS011;2002;48.812;9.180;2023-04-01T22:53:48;1.23;;;1.13;;
3975;SDS011;2002;48.812;9.180;2023-04-01T22:56:26;1.20;;;0.70;;
3975;SDS011;2002;48.812;9.180;2023-04-01T22:59:41;1.13;;;0.67;;
3975;SDS011;2002;48.812;9.180;2023-04-01T23:02:00;2.00;;;0.60;;
3975;SDS011;2002;48.812;9.180;2023-04-01T23:04:33;1.00;;;0.40;;
3975;SDS011;2002;48.812;9.180;2023-04-01T23:07:05;0.93;;;0.57;;
3975;SDS011;2002;48.812;9.180;2023-04-01T23:09:56;3.00;;;1.20;;
3975;SDS011;2002;48.812;9.180;2023-04-01T23:12:23;0.90;;;0.57;;
3975;SDS011;2002;48.812;9.180;2023-04-01T23:14:58;1.10;;;0.60;;
3975;SDS011;2002;48.812;9.180;2023-04-01T23:17:29;1.17;;;0.67;;
3975;SDS011;2002;48.812;9.180;2023-04-01T23:20:12;1.10;;;0.60;;
3975;SDS011;2002;48.812;9.180;2023-04-01T23:25:23;1.23;;;0.60;;
3975;SDS011;2002;48.812;9.180;2023-04-01T23:35:57;0.77;;;0.50;;
3975;SDS011;2002;48.812;9.180;2023-04-01T23:38:32;0.83;;;0.53;;
3975;SDS011;2002;48.812;9.180;2023-04-01T23:41:03;0.70;;;0.50;;
3975;SDS011;2002;48.812;9.180;2023-04-01T23:43:31;0.60;;;0.40;;
3975;SDS011;2002;48.812;9.180;2023-04-01T23:46:01;0.77;;;0.57;;
3975;SDS011;2002;48.812;9.180;2023-04-01T23:48:32;1.50;;;0.73;;
3975;SDS011;2002;48.812;9.180;2023-04-01T23:51:01;1.50;;;0.77;;
3975;SDS011;2002;48.812;9.180;2023-04-01T23:53:32;1.53;;;0.70;;
3975;SDS011;2002;48.812;9.180;2023-04-01T23:55:59;1.27;;;0.67;;
3975;SDS011;2002;48.812;9.180;2023-04-01T23:58:27;1.60;;;0.70;;
